Time;durP1;ratioP1;P1;durP2;ratioP2;P2;SDS_P1;SDS_P2;PMS_P1;PMS_P2;Temp;Humidity;BMP_temperature;BMP_pressure;BME280_temperature;BME280_humidity;BME280_pressure;Samples;Min_cycle;Max_cycle;Signal;HPM_P1;HPM_P2
2021/04/25 00:02:08;;;;;;;3.27;2.73;;;17.10;38.60;;;;;;4872387;29;20527;-63
2021/04/25 00:04:35;;;;;;;4.10;2.70;;;17.00;38.80;;;;;;4871864;29;20511;-63
2021/04/25 00:07:03;;;;;;;3.33;2.80;;;17.00;38.80;;;;;;4872000;29;20526;-63
2021/04/25 00:09:30;;;;;;;4.10;3.20;;;17.10;38.80;;;;;;4872074;29;20470;-64
2021/04/25 00:11:57;;;;;;;3.77;2.87;;;17.00;38.90;;;;;;4870881;29;20558;-63
2021/04/25 00:14:24;;;;;;;4.17;3.37;;;17.00;39.00;;;;;;4871225;29;20443;-63
2021/04/25 00:16:50;;;;;;;4.03;3.23;;;17.00;39.10;;;;;;4871103;29;20478;-63
2021/04/25 00:19:17;;;;;;;5.50;2.80;;;17.00;39.20;;;;;;4871311;29;20446;-63
2021/04/25 00:21:44;;;;;;;5.00;3.40;;;16.90;39.00;;;;;;4871286;29;20534;-63
2021/04/25 00:24:12;;;;;;;4.57;2.83;;;16.90;39.20;;;;;;4871352;29;20447;-63
2021/04/25 00:26:39;;;;;;;3.93;3.10;;;16.90;39.30;;;;;;4894789;29;20538;-63
2021/04/25 00:29:06;;;;;;;4.40;2.83;;;16.90;39.30;;;;;;4927463;29;20543;-64
2021/04/25 00:31:33;;;;;;;4.03;3.33;;;16.80;39.30;;;;;;4927185;29;20507;-63
2021/04/25 00:34:00;;;;;;;3.30;2.97;;;16.80;39.30;;;;;;4927169;29;20448;-63
2021/04/25 00:36:27;;;;;;;3.70;2.67;;;16.90;39.30;;;;;;4927664;29;20482;-63
2021/04/25 00:38:54;;;;;;;4.87;3.63;;;16.80;39.30;;;;;;4927363;29;20448;-63
2021/04/25 00:41:21;;;;;;;3.73;3.17;;;16.80;39.40;;;;;;4927446;28;20575;-63
2021/04/25 00:43:48;;;;;;;3.47;2.70;;;16.80;39.50;;;;;;4927308;29;20528;-63
2021/04/25 00:46:16;;;;;;;3.83;3.00;;;16.80;39.40;;;;;;4927374;29;20515;-63
2021/04/25 00:48:43;;;;;;;3.00;2.50;;;16.80;39.50;;;;;;4927276;29;20480;-63
2021/04/25 00:51:11;;;;;;;3.20;2.60;;;16.80;39.50;;;;;;4927767;29;20475;-63
2021/04/25 00:53:38;;;;;;;3.63;2.80;;;16.80;39.50;;;;;;4927347;29;20464;-63
2021/04/25 00:56:05;;;;;;;2.60;2.37;;;16.70;39.50;;;;;;4928165;28;20486;-63
2021/04/25 00:58:33;;;;;;;4.00;2.73;;;16.70;39.70;;;;;;4927189;29;20555;-63
2021/04/25 01:01:00;;;;;;;3.03;2.70;;;16.60;39.70;;;;;;4927433;29;20447;-63
2021/04/25 01:03:26;;;;;;;3.57;2.70;;;16.60;39.70;;;;;;4927200;29;20480;-63
2021/04/25 01:05:53;;;;;;;4.93;2.70;;;16.70;39.80;;;;;;4926779;29;20451;-63
2021/04/25 01:08:20;;;;;;;3.87;2.00;;;16.60;39.70;;;;;;4930486;29;20491;-63
2021/04/25 01:10:47;;;;;;;5.87;3.10;;;16.60;39.70;;;;;;4927013;29;20448;-63
2021/04/25 01:13:15;;;;;;;2.90;2.63;;;16.60;39.80;;;;;;4926766;29;20511;-63
2021/04/25 01:15:43;;;;;;;3.10;2.73;;;16.60;39.80;;;;;;4927509;29;20559;-63
2021/04/25 01:18:10;;;;;;;2.93;2.30;;;16.50;39.80;;;;;;4927027;29;20506;-63
2021/04/25 01:20:37;;;;;;;3.43;2.80;;;16.50;39.90;;;;;;4927094;29;20451;-63
2021/04/25 01:23:05;;;;;;;3.90;2.80;;;16.50;39.90;;;;;;4927011;29;20444;-63
2021/04/25 01:25:32;;;;;;;3.00;2.33;;;16.50;39.90;;;;;;4926552;29;20488;-63
2021/04/25 01:27:59;;;;;;;5.00;2.10;;;16.40;40.00;;;;;;4927269;29;20464;-63
2021/04/25 01:30:27;;;;;;;2.50;2.30;;;16.40;40.00;;;;;;4926547;29;20444;-63
2021/04/25 01:32:54;;;;;;;2.50;2.20;;;16.40;40.00;;;;;;4927084;29;20515;-63
2021/04/25 01:35:22;;;;;;;2.77;2.50;;;16.40;40.10;;;;;;4926900;29;20454;-63
2021/04/25 01:37:49;;;;;;;2.80;2.20;;;16.40;40.10;;;;;;4927325;29;20456;-63
2021/04/25 01:40:17;;;;;;;2.80;2.60;;;16.40;40.10;;;;;;4930910;29;20452;-63
2021/04/25 01:42:43;;;;;;;2.97;2.33;;;16.40;40.20;;;;;;4930766;29;20475;-63
2021/04/25 01:45:16;;;;;;;2.87;2.50;;;16.40;40.30;;;;;;4930636;29;20469;-64
2021/04/25 01:47:44;;;;;;;3.47;2.40;;;16.40;40.30;;;;;;4930632;29;20555;-63
2021/04/25 01:50:11;;;;;;;2.90;2.57;;;16.30;40.40;;;;;;4930799;29;20440;-63
2021/04/25 01:52:38;;;;;;;3.63;2.40;;;16.30;40.40;;;;;;4930655;29;20503;-63
2021/04/25 01:55:05;;;;;;;2.47;2.27;;;16.30;40.50;;;;;;4930818;29;20551;-63
2021/04/25 01:57:33;;;;;;;2.50;2.30;;;16.30;40.50;;;;;;4930784;29;20476;-63
2021/04/25 02:00:00;;;;;;;4.93;2.37;;;16.30;40.50;;;;;;4930095;29;20463;-63
2021/04/25 02:02:27;;;;;;;3.53;2.30;;;16.30;40.40;;;;;;4930468;29;20471;-63
2021/04/25 02:04:54;;;;;;;3.50;2.47;;;16.30;40.50;;;;;;4930121;29;20454;-63
2021/04/25 02:07:21;;;;;;;2.57;2.37;;;16.20;40.60;;;;;;4930516;29;20547;-63
2021/04/25 02:09:48;;;;;;;3.20;2.50;;;16.20;40.60;;;;;;4930636;29;20554;-63
2021/04/25 02:12:15;;;;;;;3.33;2.57;;;16.20;40.60;;;;;;4930372;29;20480;-63
2021/04/25 02:14:42;;;;;;;2.27;2.17;;;16.20;40.60;;;;;;4930339;29;20523;-62
2021/04/25 02:17:09;;;;;;;3.37;2.43;;;16.20;40.60;;;;;;4929918;29;20534;-63
2021/04/25 02:19:37;;;;;;;2.70;2.10;;;16.20;40.70;;;;;;4930009;29;20443;-63
2021/04/25 02:22:04;;;;;;;2.30;2.13;;;16.10;40.60;;;;;;4930053;29;20539;-63
2021/04/25 02:24:31;;;;;;;2.30;2.07;;;16.10;40.60;;;;;;4929752;29;20447;-63
2021/04/25 02:26:58;;;;;;;2.50;2.30;;;16.20;40.70;;;;;;4930032;29;20468;-63
2021/04/25 02:29:25;;;;;;;2.93;2.40;;;16.10;40.70;;;;;;4930103;29;20555;-63
2021/04/25 02:31:52;;;;;;;2.37;2.03;;;16.10;40.80;;;;;;4929326;29;20479;-63
2021/04/25 02:34:19;;;;;;;2.70;2.43;;;16.10;40.80;;;;;;4930017;29;20452;-63
2021/04/25 02:36:46;;;;;;;2.53;2.20;;;16.10;40.80;;;;;;4929550;29;20475;-63
2021/04/25 02:39:13;;;;;;;2.10;1.97;;;16.10;40.80;;;;;;4929693;29;20456;-63
2021/04/25 02:41:40;;;;;;;2.97;2.57;;;16.10;40.80;;;;;;4929506;29;20507;-63
2021/04/25 02:44:07;;;;;;;2.17;2.00;;;16.10;40.90;;;;;;4929674;29;20538;-63
2021/04/25 02:46:33;;;;;;;2.23;2.00;;;16.00;40.80;;;;;;4929760;29;20590;-63
2021/04/25 02:49:01;;;;;;;2.37;2.17;;;16.00;41.00;;;;;;4929894;29;20437;-62
2021/04/25 02:51:28;;;;;;;2.10;1.90;;;15.90;41.00;;;;;;4928529;29;20507;-63
2021/04/25 02:53:55;;;;;;;3.43;2.10;;;15.90;41.10;;;;;;4929131;29;20575;-63
2021/04/25 02:56:22;;;;;;;1.83;1.70;;;15.90;41.00;;;;;;4928833;29;20490;-63
2021/04/25 02:58:48;;;;;;;2.93;2.23;;;16.00;41.10;;;;;;4929305;29;20487;-63
2021/04/25 03:01:15;;;;;;;4.77;2.57;;;16.00;41.10;;;;;;4929277;29;20547;-63
2021/04/25 03:03:42;;;;;;;3.30;2.30;;;15.90;41.10;;;;;;4929187;29;20464;-63
2021/04/25 03:06:10;;;;;;;1.90;1.80;;;15.90;41.20;;;;;;4929586;29;20519;-63
2021/04/25 03:08:37;;;;;;;3.13;2.13;;;15.90;41.20;;;;;;4929020;29;20435;-63
2021/04/25 03:11:04;;;;;;;1.83;1.73;;;15.90;41.20;;;;;;4928941;29;20551;-63
2021/04/25 03:13:30;;;;;;;2.70;2.50;;;15.80;41.20;;;;;;4928559;29;20471;-63
2021/04/25 03:15:58;;;;;;;2.23;2.03;;;15.80;41.30;;;;;;4928454;29;20520;-63
2021/04/25 03:18:24;;;;;;;3.53;1.70;;;15.80;41.40;;;;;;4929407;29;20444;-63
2021/04/25 03:20:52;;;;;;;2.67;2.00;;;15.80;41.40;;;;;;4929299;29;20456;-63
2021/04/25 03:23:19;;;;;;;1.80;1.70;;;15.80;41.50;;;;;;4929328;29;20444;-63
2021/04/25 03:25:46;;;;;;;3.53;1.87;;;15.80;41.50;;;;;;4929100;29;20487;-63
2021/04/25 03:28:13;;;;;;;2.13;1.93;;;15.70;41.50;;;;;;4928941;29;20479;-62
2021/04/25 03:30:40;;;;;;;4.13;2.10;;;15.70;41.50;;;;;;4929024;29;20535;-63
2021/04/25 03:33:06;;;;;;;2.10;1.93;;;15.70;41.60;;;;;;4928721;29;20563;-63
2021/04/25 03:35:33;;;;;;;3.07;1.80;;;15.70;41.70;;;;;;4928654;29;20494;-63
2021/04/25 03:38:00;;;;;;;3.00;1.90;;;15.70;41.70;;;;;;4928934;29;20440;-63
2021/04/25 03:40:28;;;;;;;2.27;2.07;;;15.70;41.70;;;;;;4928824;29;20443;-63
2021/04/25 03:42:55;;;;;;;1.67;1.57;;;15.60;41.70;;;;;;4929171;29;20531;-63
2021/04/25 03:45:21;;;;;;;2.00;1.83;;;15.60;41.80;;;;;;4928615;29;20528;-63
2021/04/25 03:47:49;;;;;;;2.20;1.90;;;15.60;41.70;;;;;;4928648;29;20476;-63
2021/04/25 03:50:17;;;;;;;1.87;1.67;;;15.60;41.80;;;;;;4928265;29;20448;-63
2021/04/25 03:52:44;;;;;;;1.93;1.83;;;15.60;41.80;;;;;;4928451;29;20516;-63
2021/04/25 03:55:12;;;;;;;1.77;1.67;;;15.60;41.90;;;;;;4928631;29;20471;-63
2021/04/25 03:57:40;;;;;;;2.70;1.63;;;15.60;41.80;;;;;;4928206;29;20480;-63
2021/04/25 04:00:09;;;;;;;2.10;1.80;;;15.60;42.00;;;;;;4928459;29;20444;-63
2021/04/25 04:02:36;;;;;;;2.50;1.93;;;15.60;42.00;;;;;;4928438;29;20448;-63
2021/04/25 04:05:03;;;;;;;1.70;1.60;;;15.50;42.00;;;;;;4927897;29;20567;-63
2021/04/25 04:07:30;;;;;;;2.43;2.17;;;15.50;42.10;;;;;;4928056;29;20444;-63
2021/04/25 04:09:57;;;;;;;2.27;1.93;;;15.50;42.00;;;;;;4928175;29;20556;-63
2021/04/25 04:12:24;;;;;;;2.33;1.60;;;15.60;42.10;;;;;;4928267;29;20547;-63
2021/04/25 04:14:51;;;;;;;2.30;2.00;;;15.60;42.10;;;;;;4927962;29;20629;-63
2021/04/25 04:17:18;;;;;;;2.60;1.90;;;15.50;42.00;;;;;;4928570;29;20507;-63
2021/04/25 04:19:45;;;;;;;2.93;1.83;;;15.50;42.10;;;;;;4927987;29;20448;-63
2021/04/25 04:22:12;;;;;;;3.40;2.20;;;15.50;42.10;;;;;;4927946;29;20483;-63
2021/04/25 04:24:39;;;;;;;2.13;1.90;;;15.50;42.10;;;;;;4927997;29;20516;-63
2021/04/25 04:27:06;;;;;;;2.97;1.80;;;15.50;42.20;;;;;;4928150;29;20502;-63
2021/04/25 04:29:33;;;;;;;1.63;1.53;;;15.50;42.30;;;;;;4928006;29;20512;-63
2021/04/25 04:32:01;;;;;;;2.10;2.00;;;15.50;42.30;;;;;;4927869;29;20555;-62
2021/04/25 04:34:28;;;;;;;3.53;2.20;;;15.50;42.30;;;;;;4927605;29;20482;-63
2021/04/25 04:36:55;;;;;;;2.73;1.77;;;15.50;42.30;;;;;;4927818;29;20602;-63
2021/04/25 04:39:22;;;;;;;1.90;1.80;;;15.40;42.20;;;;;;4927696;29;20543;-63
2021/04/25 04:41:49;;;;;;;1.60;1.50;;;15.50;42.20;;;;;;4927437;29;20542;-63
2021/04/25 04:44:16;;;;;;;4.67;1.80;;;15.40;42.20;;;;;;4927399;29;20474;-63
2021/04/25 04:46:43;;;;;;;1.80;1.60;;;15.40;42.30;;;;;;4927667;29;20539;-63
2021/04/25 04:49:11;;;;;;;2.20;1.70;;;15.50;42.30;;;;;;4927680;29;20532;-63
2021/04/25 04:51:40;;;;;;;4.37;2.10;;;15.40;42.30;;;;;;4927754;29;20527;-63
2021/04/25 04:54:07;;;;;;;2.63;1.90;;;15.40;42.40;;;;;;4927739;29;20503;-63
2021/04/25 04:56:34;;;;;;;2.60;1.97;;;15.40;42.40;;;;;;4927803;29;20472;-63
2021/04/25 04:59:06;;;;;;;1.93;1.70;;;15.40;42.40;;;;;;4927479;29;20483;-63
2021/04/25 05:01:33;;;;;;;2.03;1.73;;;15.40;42.40;;;;;;4927658;29;20520;-63
2021/04/25 05:04:00;;;;;;;1.87;1.50;;;15.40;42.50;;;;;;4927670;29;20436;-63
2021/04/25 05:06:27;;;;;;;2.00;1.90;;;15.40;42.40;;;;;;4927387;29;20467;-63
2021/04/25 05:08:54;;;;;;;5.47;1.80;;;15.40;42.40;;;;;;4927691;29;20440;-63
2021/04/25 05:11:21;;;;;;;2.00;1.80;;;15.40;42.50;;;;;;4927388;28;20476;-64
2021/04/25 05:13:48;;;;;;;2.00;1.80;;;15.40;42.50;;;;;;4930883;29;20515;-63
2021/04/25 05:16:15;;;;;;;1.63;1.53;;;15.30;42.50;;;;;;4934143;29;20444;-64
2021/04/25 05:18:42;;;;;;;2.20;1.60;;;15.40;42.60;;;;;;4934153;29;20452;-64
2021/04/25 05:21:09;;;;;;;2.60;1.67;;;15.40;42.60;;;;;;4933632;29;20590;-64
2021/04/25 05:23:37;;;;;;;2.40;1.90;;;15.40;42.60;;;;;;4933587;29;20443;-63
2021/04/25 05:26:04;;;;;;;2.33;1.57;;;15.40;42.60;;;;;;4933228;29;20495;-64
2021/04/25 05:28:31;;;;;;;3.23;1.50;;;15.30;42.50;;;;;;4933235;29;20447;-64
2021/04/25 05:30:58;;;;;;;1.57;1.40;;;15.40;42.70;;;;;;4933936;29;20519;-64
2021/04/25 05:33:25;;;;;;;2.90;1.70;;;15.30;42.60;;;;;;4933393;29;20511;-64
2021/04/25 05:35:52;;;;;;;1.67;1.30;;;15.40;42.60;;;;;;4933166;29;20448;-64
2021/04/25 05:38:19;;;;;;;2.10;1.53;;;15.40;42.60;;;;;;4933338;29;20432;-64
2021/04/25 05:40:47;;;;;;;2.30;1.60;;;15.30;42.60;;;;;;4933946;29;20498;-64
2021/04/25 05:43:13;;;;;;;2.10;1.47;;;15.40;42.60;;;;;;4933387;29;20614;-64
2021/04/25 05:45:40;;;;;;;1.60;1.50;;;15.40;42.60;;;;;;4933470;29;20428;-64
2021/04/25 05:48:08;;;;;;;1.67;1.57;;;15.40;42.60;;;;;;4932994;29;20534;-63
2021/04/25 05:50:35;;;;;;;1.63;1.53;;;15.30;42.60;;;;;;4933421;29;20451;-64
2021/04/25 05:53:02;;;;;;;2.30;1.47;;;15.40;42.60;;;;;;4933005;29;20500;-64
2021/04/25 05:55:29;;;;;;;5.10;1.80;;;15.30;42.50;;;;;;4933014;29;20440;-63
2021/04/25 05:57:56;;;;;;;4.40;1.53;;;15.30;42.60;;;;;;4932838;28;20517;-63
2021/04/25 06:00:25;;;;;;;1.90;1.80;;;15.40;42.60;;;;;;4932998;29;20503;-63
2021/04/25 06:02:52;;;;;;;1.40;1.30;;;15.40;42.60;;;;;;4933063;29;20515;-63
2021/04/25 06:05:18;;;;;;;1.70;1.60;;;15.40;42.60;;;;;;4933231;29;20475;-63
2021/04/25 06:07:45;;;;;;;1.93;1.70;;;15.40;42.60;;;;;;4933535;29;20521;-64
2021/04/25 06:10:14;;;;;;;1.67;1.30;;;15.40;42.60;;;;;;4916638;29;20458;-64
2021/04/25 06:12:41;;;;;;;1.77;1.60;;;15.40;42.60;;;;;;4934229;28;20690;-64
2021/04/25 06:15:09;;;;;;;1.40;1.30;;;15.40;42.60;;;;;;4933176;29;20542;-64
2021/04/25 06:17:36;;;;;;;1.73;1.63;;;15.40;42.60;;;;;;4934153;28;20444;-64
2021/04/25 06:20:03;;;;;;;2.77;1.70;;;15.40;42.60;;;;;;4932826;29;20440;-64
2021/04/25 06:22:30;;;;;;;3.37;1.80;;;15.40;42.60;;;;;;4932952;29;20447;-63
2021/04/25 06:24:57;;;;;;;2.80;1.67;;;15.40;42.70;;;;;;4930371;29;20502;-64
2021/04/25 06:27:25;;;;;;;1.87;1.60;;;15.40;42.60;;;;;;4930038;29;20512;-64
2021/04/25 06:29:52;;;;;;;3.20;1.57;;;15.40;42.60;;;;;;4929858;29;20472;-63
2021/04/25 06:32:20;;;;;;;3.70;1.63;;;15.40;42.60;;;;;;4930756;29;20487;-63
2021/04/25 06:34:47;;;;;;;2.60;1.70;;;15.40;42.60;;;;;;4929898;29;20473;-63
2021/04/25 06:37:14;;;;;;;1.43;1.33;;;15.40;42.60;;;;;;4930104;29;20503;-63
2021/04/25 06:39:41;;;;;;;1.70;1.60;;;15.50;42.60;;;;;;4929952;29;20531;-64
2021/04/25 06:42:08;;;;;;;2.30;1.47;;;15.50;42.60;;;;;;4929791;29;20464;-64
2021/04/25 06:44:35;;;;;;;1.70;1.60;;;15.50;42.60;;;;;;4929278;29;20474;-64
2021/04/25 06:47:02;;;;;;;1.80;1.70;;;15.50;42.60;;;;;;4929488;29;20555;-63
2021/04/25 06:49:29;;;;;;;2.13;1.43;;;15.50;42.60;;;;;;4930023;29;20471;-64
2021/04/25 06:51:56;;;;;;;1.73;1.40;;;15.50;42.60;;;;;;4929537;29;20479;-63
2021/04/25 06:54:23;;;;;;;1.87;1.70;;;15.50;42.60;;;;;;4929208;29;20571;-64
2021/04/25 06:56:50;;;;;;;2.20;2.00;;;15.50;42.60;;;;;;4928950;29;20510;-64
2021/04/25 06:59:18;;;;;;;3.17;1.50;;;15.50;42.60;;;;;;4929731;29;20531;-63
2021/04/25 07:01:45;;;;;;;1.43;1.33;;;15.50;42.60;;;;;;4929578;29;20637;-63
2021/04/25 07:04:12;;;;;;;2.30;1.40;;;15.50;42.60;;;;;;4928923;29;20472;-63
2021/04/25 07:06:39;;;;;;;2.43;1.70;;;15.50;42.60;;;;;;4929516;29;20483;-64
2021/04/25 07:09:06;;;;;;;1.63;1.53;;;15.50;42.60;;;;;;4929252;29;20512;-64
2021/04/25 07:11:33;;;;;;;1.97;1.47;;;15.50;42.60;;;;;;4930447;28;20480;-64
2021/04/25 07:14:00;;;;;;;2.87;1.53;;;15.50;42.70;;;;;;4929221;29;20555;-64
2021/04/25 07:16:27;;;;;;;4.00;1.50;;;15.60;42.70;;;;;;4928835;29;20455;-64
2021/04/25 07:18:54;;;;;;;1.73;1.63;;;15.60;42.60;;;;;;4928766;29;20459;-64
2021/04/25 07:21:21;;;;;;;2.63;1.60;;;15.70;42.50;;;;;;4929176;29;20448;-64
2021/04/25 07:23:48;;;;;;;1.70;1.50;;;15.70;42.40;;;;;;4928754;29;20535;-64
2021/04/25 07:26:15;;;;;;;4.80;1.70;;;15.80;42.40;;;;;;4929498;28;20527;-64
2021/04/25 07:28:42;;;;;;;2.03;1.40;;;15.90;42.30;;;;;;4928953;29;20579;-64
2021/04/25 07:31:10;;;;;;;1.40;1.30;;;16.00;42.10;;;;;;4928566;29;20464;-64
2021/04/25 07:33:37;;;;;;;1.57;1.50;;;16.20;42.00;;;;;;4928967;29;20518;-64
2021/04/25 07:36:08;;;;;;;1.63;1.47;;;16.20;41.80;;;;;;4927754;29;20456;-64
2021/04/25 07:38:36;;;;;;;1.77;1.50;;;16.40;41.70;;;;;;4928426;29;20527;-64
2021/04/25 07:41:04;;;;;;;3.77;1.60;;;16.50;41.50;;;;;;4928552;29;20496;-64
2021/04/25 07:43:31;;;;;;;1.93;1.60;;;16.60;41.30;;;;;;4928246;29;20471;-64
2021/04/25 07:45:58;;;;;;;1.70;1.60;;;16.60;41.30;;;;;;4927953;29;20448;-64
2021/04/25 07:48:24;;;;;;;1.43;1.33;;;16.60;41.30;;;;;;4928007;29;20492;-64
2021/04/25 07:50:51;;;;;;;2.97;1.50;;;16.80;41.30;;;;;;4928181;29;20564;-63
2021/04/25 07:53:19;;;;;;;1.40;1.30;;;16.90;41.00;;;;;;4928064;29;20563;-63
2021/04/25 07:55:45;;;;;;;2.97;1.67;;;17.00;40.90;;;;;;4928172;29;20501;-63
2021/04/25 07:58:13;;;;;;;2.27;1.57;;;17.00;40.90;;;;;;4928589;29;20444;-63
2021/04/25 08:00:40;;;;;;;1.60;1.50;;;17.00;40.90;;;;;;4926593;29;20493;-63
2021/04/25 08:03:07;;;;;;;2.70;1.37;;;17.00;41.00;;;;;;4924571;29;20511;-63
2021/04/25 08:05:34;;;;;;;2.33;1.27;;;16.90;41.00;;;;;;4927498;29;20456;-63
2021/04/25 08:08:01;;;;;;;1.30;1.20;;;16.90;41.10;;;;;;4928188;29;20526;-63
2021/04/25 08:10:28;;;;;;;1.20;1.20;;;17.00;41.20;;;;;;4928423;29;20475;-63
2021/04/25 08:12:55;;;;;;;2.07;1.53;;;17.00;41.20;;;;;;4928088;29;20475;-63
2021/04/25 08:15:24;;;;;;;1.60;1.50;;;16.90;41.10;;;;;;4927522;29;20531;-63
2021/04/25 08:17:51;;;;;;;1.50;1.40;;;17.00;41.20;;;;;;4928449;29;20519;-63
2021/04/25 08:20:17;;;;;;;2.37;1.80;;;17.00;41.20;;;;;;4927684;29;20472;-63
2021/04/25 08:22:44;;;;;;;2.77;1.60;;;16.90;41.30;;;;;;4927652;29;20444;-64
2021/04/25 08:25:12;;;;;;;1.33;1.23;;;17.00;41.40;;;;;;4927360;29;20448;-64
2021/04/25 08:27:38;;;;;;;1.63;1.47;;;17.00;41.30;;;;;;4928585;29;20498;-64
2021/04/25 08:30:06;;;;;;;1.77;1.50;;;17.10;41.10;;;;;;4927477;29;20527;-64
2021/04/25 08:32:34;;;;;;;2.07;1.40;;;17.30;41.20;;;;;;4927662;29;20452;-63
2021/04/25 08:35:01;;;;;;;2.80;1.20;;;17.40;41.00;;;;;;4927665;29;20475;-63
2021/04/25 08:37:28;;;;;;;2.10;1.20;;;17.40;40.70;;;;;;4927970;29;20498;-63
2021/04/25 08:39:55;;;;;;;1.63;1.43;;;17.60;40.80;;;;;;4927961;29;20528;-64
2021/04/25 08:42:21;;;;;;;2.20;1.40;;;17.50;40.70;;;;;;4927474;29;20452;-64
2021/04/25 08:44:49;;;;;;;1.37;1.27;;;17.60;40.80;;;;;;4927116;29;20551;-64
2021/04/25 08:47:15;;;;;;;1.63;1.40;;;17.70;40.70;;;;;;4926576;29;20484;-63
2021/04/25 08:49:43;;;;;;;1.83;1.67;;;18.10;40.30;;;;;;4926101;29;20454;-63
2021/04/25 08:52:11;;;;;;;1.73;1.60;;;18.50;39.70;;;;;;4927243;29;20522;-63
2021/04/25 08:54:38;;;;;;;2.70;1.33;;;18.70;39.30;;;;;;4926386;29;20490;-63
2021/04/25 08:57:05;;;;;;;1.37;1.27;;;18.90;39.20;;;;;;4926722;29;20486;-63
2021/04/25 08:59:32;;;;;;;1.37;1.27;;;19.20;39.00;;;;;;4927192;29;20444;-63
2021/04/25 09:01:59;;;;;;;5.10;1.83;;;19.50;38.60;;;;;;4926760;29;20503;-63
2021/04/25 09:04:26;;;;;;;1.73;1.53;;;19.70;38.30;;;;;;4927611;29;20498;-63
2021/04/25 09:07:01;;;;;;;1.33;1.23;;;19.90;38.30;;;;;;4927587;29;20440;-63
2021/04/25 09:09:45;;;;;;;1.80;1.40;;;19.90;38.20;;;;;;4927089;29;20447;-63
2021/04/25 09:12:15;;;;;;;2.60;1.50;;;19.70;38.20;;;;;;4927623;29;20476;-63
2021/04/25 09:14:42;;;;;;;1.57;1.20;;;19.70;38.60;;;;;;4926996;29;20575;-63
2021/04/25 09:17:08;;;;;;;1.83;1.50;;;19.70;38.70;;;;;;4927058;29;20462;-63
2021/04/25 09:19:52;;;;;;;1.50;1.17;;;19.60;38.70;;;;;;4927165;29;20463;-63
2021/04/25 09:22:21;;;;;;;1.40;1.30;;;19.40;39.10;;;;;;4927368;29;20543;-63
2021/04/25 09:24:48;;;;;;;3.33;1.53;;;19.30;39.40;;;;;;4926572;29;20444;-63
2021/04/25 09:27:25;;;;;;;1.20;1.10;;;19.30;39.40;;;;;;4927159;29;20475;-64
2021/04/25 09:29:52;;;;;;;1.10;1.10;;;19.50;39.30;;;;;;4927112;29;20530;-63
2021/04/25 09:32:20;;;;;;;1.23;1.03;;;19.80;38.90;;;;;;4926815;29;20527;-63
2021/04/25 09:34:47;;;;;;;1.27;1.10;;;19.80;38.80;;;;;;4926349;29;20506;-63
2021/04/25 09:37:15;;;;;;;2.13;1.37;;;19.70;39.00;;;;;;4926623;29;20511;-63
2021/04/25 09:40:03;;;;;;;1.63;1.40;;;19.60;39.30;;;;;;4926524;29;20483;-63
2021/04/25 09:42:31;;;;;;;1.30;1.20;;;19.40;39.50;;;;;;4926057;29;20559;-63
2021/04/25 09:44:58;;;;;;;2.53;1.43;;;19.30;39.80;;;;;;4926042;29;20535;-63
2021/04/25 09:47:31;;;;;;;3.27;1.27;;;19.30;40.00;;;;;;4926889;29;20487;-63
2021/04/25 09:50:00;;;;;;;1.53;1.30;;;19.30;39.90;;;;;;4926787;29;20448;-63
2021/04/25 09:52:37;;;;;;;1.60;1.50;;;19.40;39.80;;;;;;4926788;29;20474;-63
2021/04/25 09:55:14;;;;;;;1.30;1.20;;;19.50;39.70;;;;;;4926405;29;20562;-63
2021/04/25 09:57:45;;;;;;;1.23;1.13;;;19.50;39.70;;;;;;4926705;29;20428;-63
2021/04/25 10:00:13;;;;;;;1.77;1.37;;;19.50;39.70;;;;;;4928209;29;20436;-63
2021/04/25 10:03:01;;;;;;;4.70;1.40;;;19.50;39.80;;;;;;4929761;29;20455;-63
2021/04/25 10:05:29;;;;;;;1.47;1.37;;;19.90;39.60;;;;;;4929650;29;20416;-63
2021/04/25 10:07:56;;;;;;;1.40;1.30;;;20.30;38.90;;;;;;4930194;29;20451;-63
2021/04/25 10:10:24;;;;;;;2.00;1.10;;;20.30;38.90;;;;;;4929460;29;20492;-63
2021/04/25 10:12:50;;;;;;;1.40;1.30;;;20.10;39.10;;;;;;4930031;29;20478;-63
2021/04/25 10:15:19;;;;;;;3.83;1.43;;;19.90;39.40;;;;;;4929570;29;20471;-63
2021/04/25 10:17:46;;;;;;;1.67;1.57;;;20.20;39.50;;;;;;4929670;29;20440;-63
2021/04/25 10:20:14;;;;;;;1.60;1.40;;;20.70;38.90;;;;;;4929108;29;20531;-63
2021/04/25 10:22:42;;;;;;;1.70;1.60;;;21.20;38.40;;;;;;4929433;29;20527;-63
2021/04/25 10:25:11;;;;;;;2.00;1.23;;;21.30;38.00;;;;;;4929359;29;20496;-63
2021/04/25 10:27:41;;;;;;;1.53;1.43;;;21.30;38.00;;;;;;4929713;29;20433;-63
2021/04/25 10:30:09;;;;;;;1.33;1.20;;;21.30;38.20;;;;;;4929480;29;20516;-63
2021/04/25 10:32:35;;;;;;;1.57;1.47;;;21.40;38.20;;;;;;4929339;29;20490;-63
2021/04/25 10:35:16;;;;;;;1.63;1.40;;;21.70;38.00;;;;;;4929109;29;20594;-63
2021/04/25 10:37:43;;;;;;;1.40;1.30;;;22.00;37.80;;;;;;4929430;29;20508;-63
2021/04/25 10:40:20;;;;;;;3.33;1.53;;;22.30;37.30;;;;;;4929087;29;20486;-64
2021/04/25 10:42:57;;;;;;;6.50;1.43;;;22.80;37.00;;;;;;4929542;29;20478;-63
2021/04/25 10:45:30;;;;;;;10.07;1.60;;;22.80;36.70;;;;;;4929251;29;20472;-64
2021/04/25 10:48:22;;;;;;;1.33;1.23;;;22.60;36.80;;;;;;4928910;29;20454;-64
2021/04/25 10:51:11;;;;;;;5.90;1.00;;;22.50;37.40;;;;;;4912350;29;20441;-50
2021/04/25 10:53:39;;;;;;;5.23;1.33;;;22.50;39.70;;;;;;4928605;29;20549;-48
2021/04/25 10:56:27;;;;;;;5.40;1.23;;;22.90;40.30;;;;;;4925734;29;20416;-49
2021/04/25 10:59:28;;;;;;;5.80;1.30;;;22.80;40.50;;;;;;4923013;29;20451;-51
2021/04/25 11:01:55;;;;;;;8.97;1.30;;;22.60;41.40;;;;;;4929062;29;20517;-48
2021/04/25 11:04:58;;;;;;;12.10;1.50;;;22.30;42.00;;;;;;4928844;29;20415;-49
2021/04/25 11:07:44;;;;;;;5.73;1.20;;;22.20;42.60;;;;;;4929035;29;20447;-49
2021/04/25 11:10:11;;;;;;;5.70;1.43;;;22.20;42.90;;;;;;4929045;29;20506;-50
2021/04/25 11:12:39;;;;;;;5.87;1.27;;;22.20;43.10;;;;;;4928353;29;20469;-47
2021/04/25 11:15:08;;;;;;;2.20;1.43;;;22.70;42.40;;;;;;4928372;29;20514;-51
2021/04/25 11:17:35;;;;;;;4.67;1.20;;;23.50;40.00;;;;;;4928856;29;20524;-51
2021/04/25 11:20:31;;;;;;;3.63;0.90;;;24.40;38.80;;;;;;4928577;29;20555;-47
2021/04/25 11:23:03;;;;;;;11.30;1.40;;;25.00;37.60;;;;;;4928108;29;20459;-50
2021/04/25 11:25:31;;;;;;;8.00;1.60;;;24.60;38.40;;;;;;4927811;29;20543;-51
2021/04/25 11:27:58;;;;;;;9.43;1.93;;;23.90;39.20;;;;;;4928550;29;20498;-49
2021/04/25 11:30:40;;;;;;;5.10;1.33;;;23.60;40.10;;;;;;4928183;29;20463;-49
2021/04/25 11:33:34;;;;;;;11.47;1.80;;;24.80;39.30;;;;;;4928365;29;20511;-53
2021/04/25 11:36:35;;;;;;;8.90;1.63;;;24.90;38.10;;;;;;4921228;29;20440;-51
2021/04/25 11:39:03;;;;;;;3.10;1.07;;;27.20;35.70;;;;;;4924504;29;20448;-51
2021/04/25 11:41:30;;;;;;;3.03;1.00;;;31.60;29.10;;;;;;4928319;29;20448;-50
2021/04/25 11:43:56;;;;;;;2.05;0.80;;;35.00;25.20;;;;;;4928104;29;20532;-53
2021/04/25 11:46:34;;;;;;;0.85;0.70;;;36.50;23.40;;;;;;4928071;29;20288;-48
2021/04/25 11:49:06;;;;;;;1.08;0.60;;;37.70;22.10;;;;;;4928202;29;20220;-51
2021/04/25 11:51:34;;;;;;;0.60;0.60;;;38.70;21.10;;;;;;4927889;29;20225;-53
2021/04/25 11:54:00;;;;;;;0.60;0.60;;;39.10;20.40;;;;;;4927532;29;20245;-50
2021/04/25 11:56:29;;;;;;;1.25;0.60;;;39.30;20.10;;;;;;4927975;29;20288;-50
2021/04/25 11:59:08;;;;;;;1.15;0.60;;;39.50;20.10;;;;;;4927434;29;20205;-51
2021/04/25 12:01:36;;;;;;;5.50;1.08;;;40.00;20.00;;;;;;4927562;29;20268;-54
2021/04/25 12:04:04;;;;;;;1.70;0.70;;;35.50;22.00;;;;;;4927766;29;20205;-48
2021/04/25 12:06:45;;;;;;;1.27;1.17;;;31.00;25.30;;;;;;4927862;29;20463;-62
2021/04/25 12:09:11;;;;;;;8.07;1.40;;;28.40;28.30;;;;;;4928091;29;20471;-62
2021/04/25 12:11:38;;;;;;;2.83;1.30;;;27.80;28.80;;;;;;4927477;29;20444;-63
2021/04/25 12:14:16;;;;;;;8.23;1.43;;;27.30;29.10;;;;;;4927198;29;20527;-54
2021/04/25 12:16:43;;;;;;;0.90;0.70;;;32.50;26.50;;;;;;4927636;29;20447;-56
2021/04/25 12:19:21;;;;;;;6.18;0.80;;;37.20;21.90;;;;;;4927546;29;20271;-53
2021/04/25 12:21:48;;;;;;;1.75;0.50;;;39.00;19.60;;;;;;4927130;29;20234;-54
2021/04/25 12:24:18;;;;;;;0.60;0.60;;;39.80;18.70;;;;;;4925907;29;20280;-51
2021/04/25 12:26:45;;;;;;;0.50;0.50;;;40.40;19.10;;;;;;4927071;29;20295;-53
2021/04/25 12:29:12;;;;;;;4.38;0.70;;;40.80;19.10;;;;;;4918091;29;20248;-48
2021/04/25 12:31:43;;;;;;;7.07;1.00;;;36.10;21.10;;;;;;4927353;29;20245;-52
2021/04/25 12:34:14;;;;;;;4.83;1.70;;;31.90;24.50;;;;;;4926977;29;20567;-48
2021/04/25 12:36:48;;;;;;;2.23;2.10;;;26.20;21.30;;;;;;4927518;29;20518;-54
2021/04/25 12:39:15;;;;;;;2.93;1.70;;;22.30;24.00;;;;;;4927625;29;20446;-49
2021/04/25 12:41:42;;;;;;;2.13;1.20;;;25.60;23.80;;;;;;4927141;29;20436;-54
2021/04/25 12:44:09;;;;;;;1.50;0.90;;;33.20;18.90;;;;;;4926930;29;20499;-53
2021/04/25 12:46:36;;;;;;;2.42;0.85;;;35.60;17.50;;;;;;4927456;29;20546;-52
2021/04/25 12:49:03;;;;;;;0.70;0.70;;;36.30;17.70;;;;;;4926689;29;20444;-49
2021/04/25 12:51:32;;;;;;;1.63;0.88;;;38.70;16.60;;;;;;4926061;29;20209;-54
2021/04/25 12:54:05;;;;;;;0.63;0.60;;;39.90;15.90;;;;;;4926902;29;20224;-52